< < Back
Terminal Aerodrome Forecast


Current Version              Previous Versions:   1  2  3  4  5  6  7  8  9  

Terminal Aerodrome Forecast

482
FTUS42 KMLB 271826 AAA
TAFDAB
TAF AMD
KDAB 271826Z 2718/2818 02012KT P6SM VCSH BKN015 BKN040 OVC150
      TEMPO 2718/2722 SHRA BKN030
     FM280100 VRB02KT P6SM VCSH SCT025 SCT050 BKN080
     FM281400 11006KT P6SM VCSH SCT015 BKN030=

Latest METAR

427
SAUS80 KWBC 280200 RRB
MTRDAB
METAR KDAB 280153Z 00000KT 9SM BKN110 OVC150 22/20 A2986 RMK AO2
RAB21E42 PRESRR SLP110 P0000 T02170200


USA.gov is the U.S. government's official web portal to all federal, state and local government web resources and services.